sensor_id;sensor_type;location;lat;lon;timestamp;P1;durP1;ratioP1;P2;durP2;ratioP2
69126;SDS011;56688;50.234;19.292;2023-05-07T00:02:07;33.00;;;16.50;;
69126;SDS011;56688;50.234;19.292;2023-05-07T00:04:34;28.90;;;15.60;;
69126;SDS011;56688;50.234;19.292;2023-05-07T00:07:04;26.60;;;15.80;;
69126;SDS011;56688;50.234;19.292;2023-05-07T00:09:32;28.50;;;16.00;;
69126;SDS011;56688;50.234;19.292;2023-05-07T00:11:58;29.30;;;15.20;;
69126;SDS011;56688;50.234;19.292;2023-05-07T00:14:26;26.20;;;14.90;;
69126;SDS011;56688;50.234;19.292;2023-05-07T00:16:53;24.30;;;15.60;;
69126;SDS011;56688;50.234;19.292;2023-05-07T00:19:19;29.30;;;15.10;;
69126;SDS011;56688;50.234;19.292;2023-05-07T00:21:47;29.20;;;15.40;;
69126;SDS011;56688;50.234;19.292;2023-05-07T00:24:14;26.20;;;13.90;;
69126;SDS011;56688;50.234;19.292;2023-05-07T00:26:41;26.10;;;13.90;;
69126;SDS011;56688;50.234;19.292;2023-05-07T00:29:07;26.10;;;13.30;;
69126;SDS011;56688;50.234;19.292;2023-05-07T00:31:35;17.20;;;10.50;;
69126;SDS011;56688;50.234;19.292;2023-05-07T00:34:02;14.80;;;9.80;;
69126;SDS011;56688;50.234;19.292;2023-05-07T00:36:29;13.00;;;9.50;;
69126;SDS011;56688;50.234;19.292;2023-05-07T00:38:56;13.90;;;10.60;;
69126;SDS011;56688;50.234;19.292;2023-05-07T00:41:25;21.30;;;11.30;;
69126;SDS011;56688;50.234;19.292;2023-05-07T00:43:52;14.50;;;10.70;;
69126;SDS011;56688;50.234;19.292;2023-05-07T00:46:20;15.50;;;9.70;;
69126;SDS011;56688;50.234;19.292;2023-05-07T00:48:47;13.80;;;9.40;;
69126;SDS011;56688;50.234;19.292;2023-05-07T00:51:16;17.00;;;9.80;;
69126;SDS011;56688;50.234;19.292;2023-05-07T00:53:44;17.00;;;10.20;;
69126;SDS011;56688;50.234;19.292;2023-05-07T00:56:11;14.10;;;10.10;;
69126;SDS011;56688;50.234;19.292;2023-05-07T00:58:39;15.10;;;9.20;;
69126;SDS011;56688;50.234;19.292;2023-05-07T01:01:07;16.60;;;9.30;;
69126;SDS011;56688;50.234;19.292;2023-05-07T01:03:34;12.10;;;8.40;;
69126;SDS011;56688;50.234;19.292;2023-05-07T01:06:02;13.80;;;8.90;;
69126;SDS011;56688;50.234;19.292;2023-05-07T01:08:30;15.00;;;9.20;;
69126;SDS011;56688;50.234;19.292;2023-05-07T01:10:58;17.00;;;10.20;;
69126;SDS011;56688;50.234;19.292;2023-05-07T01:13:26;14.70;;;9.00;;
69126;SDS011;56688;50.234;19.292;2023-05-07T01:15:54;14.40;;;9.50;;
69126;SDS011;56688;50.234;19.292;2023-05-07T01:18:21;15.30;;;10.10;;
69126;SDS011;56688;50.234;19.292;2023-05-07T01:20:48;17.10;;;10.40;;
69126;SDS011;56688;50.234;19.292;2023-05-07T01:23:15;18.70;;;11.40;;
69126;SDS011;56688;50.234;19.292;2023-05-07T01:25:50;22.20;;;12.20;;
69126;SDS011;56688;50.234;19.292;2023-05-07T01:28:18;20.80;;;11.30;;
69126;SDS011;56688;50.234;19.292;2023-05-07T01:30:46;20.70;;;11.50;;
69126;SDS011;56688;50.234;19.292;2023-05-07T01:33:19;18.60;;;9.70;;
69126;SDS011;56688;50.234;19.292;2023-05-07T01:35:50;19.30;;;10.80;;
69126;SDS011;56688;50.234;19.292;2023-05-07T01:38:20;19.00;;;12.00;;
69126;SDS011;56688;50.234;19.292;2023-05-07T01:40:49;16.00;;;10.40;;
69126;SDS011;56688;50.234;19.292;2023-05-07T01:43:16;16.80;;;11.30;;
69126;SDS011;56688;50.234;19.292;2023-05-07T01:45:43;15.20;;;10.80;;
69126;SDS011;56688;50.234;19.292;2023-05-07T01:48:11;17.70;;;10.30;;
69126;SDS011;56688;50.234;19.292;2023-05-07T01:50:41;14.10;;;10.00;;
69126;SDS011;56688;50.234;19.292;2023-05-07T01:53:09;13.20;;;8.30;;
69126;SDS011;56688;50.234;19.292;2023-05-07T01:55:36;14.40;;;9.20;;
69126;SDS011;56688;50.234;19.292;2023-05-07T01:58:03;12.90;;;9.00;;
69126;SDS011;56688;50.234;19.292;2023-05-07T02:00:31;13.70;;;9.60;;
69126;SDS011;56688;50.234;19.292;2023-05-07T02:02:58;13.90;;;8.80;;
69126;SDS011;56688;50.234;19.292;2023-05-07T02:05:30;10.80;;;7.70;;
69126;SDS011;56688;50.234;19.292;2023-05-07T02:08:02;13.20;;;8.00;;
69126;SDS011;56688;50.234;19.292;2023-05-07T02:10:30;11.10;;;7.80;;
69126;SDS011;56688;50.234;19.292;2023-05-07T02:12:58;10.00;;;7.10;;
69126;SDS011;56688;50.234;19.292;2023-05-07T02:15:26;9.20;;;6.80;;
69126;SDS011;56688;50.234;19.292;2023-05-07T02:20:36;12.80;;;7.20;;
69126;SDS011;56688;50.234;19.292;2023-05-07T02:23:03;9.10;;;6.90;;
69126;SDS011;56688;50.234;19.292;2023-05-07T02:25:30;10.50;;;6.40;;
69126;SDS011;56688;50.234;19.292;2023-05-07T02:27:57;8.30;;;5.90;;
69126;SDS011;56688;50.234;19.292;2023-05-07T02:30:36;8.20;;;5.90;;
69126;SDS011;56688;50.234;19.292;2023-05-07T02:33:03;11.40;;;6.70;;
69126;SDS011;56688;50.234;19.292;2023-05-07T02:35:30;10.60;;;6.80;;
69126;SDS011;56688;50.234;19.292;2023-05-07T02:37:57;10.80;;;6.40;;
69126;SDS011;56688;50.234;19.292;2023-05-07T02:40:24;8.30;;;6.20;;
69126;SDS011;56688;50.234;19.292;2023-05-07T02:42:52;12.90;;;6.60;;
69126;SDS011;56688;50.234;19.292;2023-05-07T02:45:19;14.80;;;8.80;;
69126;SDS011;56688;50.234;19.292;2023-05-07T02:47:48;13.50;;;8.90;;
69126;SDS011;56688;50.234;19.292;2023-05-07T02:50:15;15.40;;;10.20;;
69126;SDS011;56688;50.234;19.292;2023-05-07T02:52:42;14.90;;;10.50;;
69126;SDS011;56688;50.234;19.292;2023-05-07T02:55:09;15.70;;;9.40;;
69126;SDS011;56688;50.234;19.292;2023-05-07T02:57:37;13.30;;;9.60;;
69126;SDS011;56688;50.234;19.292;2023-05-07T03:00:12;10.60;;;6.00;;
69126;SDS011;56688;50.234;19.292;2023-05-07T03:02:47;6.90;;;5.20;;
69126;SDS011;56688;50.234;19.292;2023-05-07T03:05:14;7.60;;;5.30;;
69126;SDS011;56688;50.234;19.292;2023-05-07T03:07:41;6.60;;;4.80;;
69126;SDS011;56688;50.234;19.292;2023-05-07T03:10:12;6.30;;;4.30;;
69126;SDS011;56688;50.234;19.292;2023-05-07T03:12:39;5.70;;;4.40;;
69126;SDS011;56688;50.234;19.292;2023-05-07T03:15:06;4.80;;;3.40;;
69126;SDS011;56688;50.234;19.292;2023-05-07T03:17:34;5.80;;;3.70;;
69126;SDS011;56688;50.234;19.292;2023-05-07T03:20:01;6.40;;;3.60;;
69126;SDS011;56688;50.234;19.292;2023-05-07T03:22:28;5.70;;;4.10;;
69126;SDS011;56688;50.234;19.292;2023-05-07T03:24:55;7.50;;;4.10;;
69126;SDS011;56688;50.234;19.292;2023-05-07T03:27:23;5.90;;;3.90;;
69126;SDS011;56688;50.234;19.292;2023-05-07T03:29:51;6.60;;;4.30;;
69126;SDS011;56688;50.234;19.292;2023-05-07T03:32:19;6.30;;;4.80;;
69126;SDS011;56688;50.234;19.292;2023-05-07T03:34:47;8.30;;;4.70;;
69126;SDS011;56688;50.234;19.292;2023-05-07T03:37:14;6.40;;;3.60;;
69126;SDS011;56688;50.234;19.292;2023-05-07T03:39:42;5.60;;;3.10;;
69126;SDS011;56688;50.234;19.292;2023-05-07T03:42:09;6.00;;;3.80;;
69126;SDS011;56688;50.234;19.292;2023-05-07T03:44:36;4.70;;;2.70;;
69126;SDS011;56688;50.234;19.292;2023-05-07T03:47:04;4.30;;;2.40;;
69126;SDS011;56688;50.234;19.292;2023-05-07T03:49:31;4.10;;;2.80;;
69126;SDS011;56688;50.234;19.292;2023-05-07T03:51:59;4.20;;;2.40;;
69126;SDS011;56688;50.234;19.292;2023-05-07T03:54:26;3.10;;;2.50;;
69126;SDS011;56688;50.234;19.292;2023-05-07T03:56:53;3.20;;;2.50;;
69126;SDS011;56688;50.234;19.292;2023-05-07T03:59:20;6.60;;;2.30;;
69126;SDS011;56688;50.234;19.292;2023-05-07T04:01:48;3.80;;;2.30;;
69126;SDS011;56688;50.234;19.292;2023-05-07T04:04:18;2.80;;;2.10;;
69126;SDS011;56688;50.234;19.292;2023-05-07T04:06:47;6.40;;;2.70;;
69126;SDS011;56688;50.234;19.292;2023-05-07T04:09:14;6.50;;;4.40;;
69126;SDS011;56688;50.234;19.292;2023-05-07T04:11:41;6.00;;;3.40;;
69126;SDS011;56688;50.234;19.292;2023-05-07T04:14:09;10.20;;;5.90;;
69126;SDS011;56688;50.234;19.292;2023-05-07T04:16:36;15.40;;;8.50;;
69126;SDS011;56688;50.234;19.292;2023-05-07T04:19:03;5.70;;;3.90;;
69126;SDS011;56688;50.234;19.292;2023-05-07T04:21:31;5.60;;;4.00;;
69126;SDS011;56688;50.234;19.292;2023-05-07T04:23:58;5.80;;;3.70;;
69126;SDS011;56688;50.234;19.292;2023-05-07T04:26:25;3.30;;;2.80;;
69126;SDS011;56688;50.234;19.292;2023-05-07T04:28:52;2.40;;;2.10;;
69126;SDS011;56688;50.234;19.292;2023-05-07T04:31:19;3.30;;;2.40;;
69126;SDS011;56688;50.234;19.292;2023-05-07T04:33:50;3.30;;;2.30;;
69126;SDS011;56688;50.234;19.292;2023-05-07T04:36:18;4.70;;;2.20;;
69126;SDS011;56688;50.234;19.292;2023-05-07T04:38:49;4.80;;;2.40;;
69126;SDS011;56688;50.234;19.292;2023-05-07T04:41:17;3.50;;;2.40;;
69126;SDS011;56688;50.234;19.292;2023-05-07T04:43:44;3.20;;;2.00;;
69126;SDS011;56688;50.234;19.292;2023-05-07T04:46:13;3.20;;;2.10;;
69126;SDS011;56688;50.234;19.292;2023-05-07T04:48:40;3.80;;;2.30;;
69126;SDS011;56688;50.234;19.292;2023-05-07T04:51:07;4.60;;;2.10;;
69126;SDS011;56688;50.234;19.292;2023-05-07T04:53:34;2.10;;;1.90;;
69126;SDS011;56688;50.234;19.292;2023-05-07T04:56:01;3.20;;;2.40;;
69126;SDS011;56688;50.234;19.292;2023-05-07T04:58:32;5.20;;;2.70;;
69126;SDS011;56688;50.234;19.292;2023-05-07T05:00:59;7.30;;;3.70;;
69126;SDS011;56688;50.234;19.292;2023-05-07T05:03:27;6.30;;;3.40;;
69126;SDS011;56688;50.234;19.292;2023-05-07T05:05:54;5.70;;;3.00;;
69126;SDS011;56688;50.234;19.292;2023-05-07T05:08:22;5.60;;;2.60;;
69126;SDS011;56688;50.234;19.292;2023-05-07T05:10:48;3.50;;;2.60;;
69126;SDS011;56688;50.234;19.292;2023-05-07T05:13:16;3.40;;;2.30;;
69126;SDS011;56688;50.234;19.292;2023-05-07T05:15:44;2.40;;;2.10;;
69126;SDS011;56688;50.234;19.292;2023-05-07T05:18:12;3.30;;;2.40;;
69126;SDS011;56688;50.234;19.292;2023-05-07T05:20:39;2.60;;;2.10;;
69126;SDS011;56688;50.234;19.292;2023-05-07T05:23:07;3.70;;;1.70;;
69126;SDS011;56688;50.234;19.292;2023-05-07T05:25:34;2.80;;;1.90;;
69126;SDS011;56688;50.234;19.292;2023-05-07T05:28:02;2.20;;;2.00;;
69126;SDS011;56688;50.234;19.292;2023-05-07T05:30:30;3.70;;;2.60;;
69126;SDS011;56688;50.234;19.292;2023-05-07T05:32:57;2.80;;;2.00;;
69126;SDS011;56688;50.234;19.292;2023-05-07T05:35:25;4.30;;;2.60;;
69126;SDS011;56688;50.234;19.292;2023-05-07T05:37:52;2.20;;;1.90;;
69126;SDS011;56688;50.234;19.292;2023-05-07T05:40:19;3.20;;;2.30;;
69126;SDS011;56688;50.234;19.292;2023-05-07T05:42:46;2.50;;;2.20;;
69126;SDS011;56688;50.234;19.292;2023-05-07T05:45:13;3.60;;;2.50;;
69126;SDS011;56688;50.234;19.292;2023-05-07T05:47:41;4.10;;;2.80;;
69126;SDS011;56688;50.234;19.292;2023-05-07T05:50:08;6.50;;;3.00;;
69126;SDS011;56688;50.234;19.292;2023-05-07T05:52:36;3.60;;;2.30;;
69126;SDS011;56688;50.234;19.292;2023-05-07T05:55:03;3.40;;;2.40;;
69126;SDS011;56688;50.234;19.292;2023-05-07T05:57:30;4.00;;;2.70;;
69126;SDS011;56688;50.234;19.292;2023-05-07T05:59:57;3.50;;;2.60;;
69126;SDS011;56688;50.234;19.292;2023-05-07T06:02:25;4.00;;;3.00;;
69126;SDS011;56688;50.234;19.292;2023-05-07T06:04:52;3.70;;;2.40;;
69126;SDS011;56688;50.234;19.292;2023-05-07T06:07:20;11.20;;;5.90;;
69126;SDS011;56688;50.234;19.292;2023-05-07T06:09:47;5.00;;;3.30;;
69126;SDS011;56688;50.234;19.292;2023-05-07T06:12:14;6.30;;;3.10;;
69126;SDS011;56688;50.234;19.292;2023-05-07T06:14:43;6.50;;;4.20;;
69126;SDS011;56688;50.234;19.292;2023-05-07T06:17:10;5.50;;;3.10;;
69126;SDS011;56688;50.234;19.292;2023-05-07T06:19:38;3.70;;;2.80;;
69126;SDS011;56688;50.234;19.292;2023-05-07T06:22:04;2.50;;;2.00;;
69126;SDS011;56688;50.234;19.292;2023-05-07T06:24:32;3.00;;;2.20;;
69126;SDS011;56688;50.234;19.292;2023-05-07T06:26:59;4.30;;;2.10;;
69126;SDS011;56688;50.234;19.292;2023-05-07T06:29:26;3.40;;;2.30;;
69126;SDS011;56688;50.234;19.292;2023-05-07T06:31:53;3.90;;;2.70;;
69126;SDS011;56688;50.234;19.292;2023-05-07T06:34:21;2.10;;;1.90;;
69126;SDS011;56688;50.234;19.292;2023-05-07T06:36:48;2.40;;;1.80;;
69126;SDS011;56688;50.234;19.292;2023-05-07T06:39:23;3.30;;;1.70;;
69126;SDS011;56688;50.234;19.292;2023-05-07T06:41:51;2.80;;;2.00;;
69126;SDS011;56688;50.234;19.292;2023-05-07T06:44:23;10.20;;;6.10;;
69126;SDS011;56688;50.234;19.292;2023-05-07T06:47:06;9.30;;;4.90;;
69126;SDS011;56688;50.234;19.292;2023-05-07T06:49:33;13.60;;;7.40;;
69126;SDS011;56688;50.234;19.292;2023-05-07T06:52:00;9.60;;;4.70;;
69126;SDS011;56688;50.234;19.292;2023-05-07T06:54:28;5.00;;;3.30;;
69126;SDS011;56688;50.234;19.292;2023-05-07T06:56:55;8.20;;;4.90;;
69126;SDS011;56688;50.234;19.292;2023-05-07T06:59:23;4.20;;;2.80;;
69126;SDS011;56688;50.234;19.292;2023-05-07T07:01:51;20.40;;;9.10;;
69126;SDS011;56688;50.234;19.292;2023-05-07T07:04:18;59.00;;;23.30;;
69126;SDS011;56688;50.234;19.292;2023-05-07T07:06:52;20.60;;;8.70;;
69126;SDS011;56688;50.234;19.292;2023-05-07T07:09:20;22.40;;;10.00;;
69126;SDS011;56688;50.234;19.292;2023-05-07T07:11:50;19.60;;;8.40;;
69126;SDS011;56688;50.234;19.292;2023-05-07T07:14:18;13.10;;;5.90;;
69126;SDS011;56688;50.234;19.292;2023-05-07T07:16:48;5.50;;;3.40;;
69126;SDS011;56688;50.234;19.292;2023-05-07T07:19:16;7.00;;;4.10;;
69126;SDS011;56688;50.234;19.292;2023-05-07T07:21:44;9.10;;;4.70;;
69126;SDS011;56688;50.234;19.292;2023-05-07T07:24:12;2.40;;;1.90;;
69126;SDS011;56688;50.234;19.292;2023-05-07T07:26:40;2.50;;;1.80;;
69126;SDS011;56688;50.234;19.292;2023-05-07T07:29:07;40.10;;;14.00;;
69126;SDS011;56688;50.234;19.292;2023-05-07T07:31:34;64.50;;;20.30;;
69126;SDS011;56688;50.234;19.292;2023-05-07T07:34:01;4.20;;;2.60;;
69126;SDS011;56688;50.234;19.292;2023-05-07T07:36:28;14.30;;;6.10;;
69126;SDS011;56688;50.234;19.292;2023-05-07T07:39:11;21.90;;;8.20;;
69126;SDS011;56688;50.234;19.292;2023-05-07T07:41:39;4.10;;;2.80;;
69126;SDS011;56688;50.234;19.292;2023-05-07T07:44:05;3.30;;;1.70;;
69126;SDS011;56688;50.234;19.292;2023-05-07T07:46:34;3.20;;;2.00;;
69126;SDS011;56688;50.234;19.292;2023-05-07T07:49:39;2.30;;;1.80;;
69126;SDS011;56688;50.234;19.292;2023-05-07T07:52:07;1.90;;;1.30;;
69126;SDS011;56688;50.234;19.292;2023-05-07T07:54:34;3.60;;;2.30;;
69126;SDS011;56688;50.234;19.292;2023-05-07T07:57:01;13.40;;;5.90;;
69126;SDS011;56688;50.234;19.292;2023-05-07T07:59:29;32.70;;;12.70;;
69126;SDS011;56688;50.234;19.292;2023-05-07T08:01:56;28.90;;;10.70;;
69126;SDS011;56688;50.234;19.292;2023-05-07T08:04:24;22.20;;;8.10;;
69126;SDS011;56688;50.234;19.292;2023-05-07T08:06:51;14.50;;;5.80;;
69126;SDS011;56688;50.234;19.292;2023-05-07T08:09:18;8.50;;;4.10;;
69126;SDS011;56688;50.234;19.292;2023-05-07T08:11:45;17.60;;;6.70;;
69126;SDS011;56688;50.234;19.292;2023-05-07T08:14:12;3.10;;;1.90;;
69126;SDS011;56688;50.234;19.292;2023-05-07T08:16:38;2.10;;;1.60;;
69126;SDS011;56688;50.234;19.292;2023-05-07T08:19:06;3.20;;;1.90;;
69126;SDS011;56688;50.234;19.292;2023-05-07T08:21:34;11.20;;;5.30;;
69126;SDS011;56688;50.234;19.292;2023-05-07T08:24:01;3.60;;;2.30;;
69126;SDS011;56688;50.234;19.292;2023-05-07T08:26:28;17.70;;;8.80;;
69126;SDS011;56688;50.234;19.292;2023-05-07T08:28:57;9.60;;;4.70;;
69126;SDS011;56688;50.234;19.292;2023-05-07T08:31:24;7.50;;;4.30;;
69126;SDS011;56688;50.234;19.292;2023-05-07T08:33:51;4.90;;;3.50;;
69126;SDS011;56688;50.234;19.292;2023-05-07T08:36:18;2.80;;;2.50;;
69126;SDS011;56688;50.234;19.292;2023-05-07T08:38:45;3.10;;;2.40;;
69126;SDS011;56688;50.234;19.292;2023-05-07T08:41:12;3.00;;;2.60;;
69126;SDS011;56688;50.234;19.292;2023-05-07T08:43:41;3.20;;;2.40;;
69126;SDS011;56688;50.234;19.292;2023-05-07T08:46:09;2.80;;;2.30;;
69126;SDS011;56688;50.234;19.292;2023-05-07T08:48:40;3.00;;;2.60;;
69126;SDS011;56688;50.234;19.292;2023-05-07T08:51:12;5.10;;;4.10;;
69126;SDS011;56688;50.234;19.292;2023-05-07T08:53:41;4.10;;;3.40;;
69126;SDS011;56688;50.234;19.292;2023-05-07T08:56:11;3.50;;;3.10;;
69126;SDS011;56688;50.234;19.292;2023-05-07T08:58:39;7.50;;;4.20;;
69126;SDS011;56688;50.234;19.292;2023-05-07T09:01:07;4.80;;;3.60;;
69126;SDS011;56688;50.234;19.292;2023-05-07T09:03:37;6.10;;;4.30;;
69126;SDS011;56688;50.234;19.292;2023-05-07T09:06:05;5.00;;;3.10;;
69126;SDS011;56688;50.234;19.292;2023-05-07T09:08:33;5.60;;;4.00;;
69126;SDS011;56688;50.234;19.292;2023-05-07T09:11:02;5.30;;;3.50;;
69126;SDS011;56688;50.234;19.292;2023-05-07T09:13:30;4.30;;;3.10;;
69126;SDS011;56688;50.234;19.292;2023-05-07T09:15:58;3.80;;;3.10;;
69126;SDS011;56688;50.234;19.292;2023-05-07T09:18:40;4.60;;;3.20;;
69126;SDS011;56688;50.234;19.292;2023-05-07T09:21:09;3.50;;;3.00;;
69126;SDS011;56688;50.234;19.292;2023-05-07T09:23:42;4.00;;;3.20;;
69126;SDS011;56688;50.234;19.292;2023-05-07T09:26:10;4.60;;;3.30;;
69126;SDS011;56688;50.234;19.292;2023-05-07T09:28:39;6.10;;;3.50;;
69126;SDS011;56688;50.234;19.292;2023-05-07T09:31:09;6.00;;;4.50;;
69126;SDS011;56688;50.234;19.292;2023-05-07T09:33:38;6.10;;;4.50;;
69126;SDS011;56688;50.234;19.292;2023-05-07T09:36:06;9.70;;;4.40;;
69126;SDS011;56688;50.234;19.292;2023-05-07T09:38:36;6.80;;;4.50;;
69126;SDS011;56688;50.234;19.292;2023-05-07T09:41:05;7.30;;;5.50;;
69126;SDS011;56688;50.234;19.292;2023-05-07T09:43:36;3.90;;;3.10;;
69126;SDS011;56688;50.234;19.292;2023-05-07T09:46:07;3.00;;;2.60;;
69126;SDS011;56688;50.234;19.292;2023-05-07T09:48:41;3.20;;;2.40;;
69126;SDS011;56688;50.234;19.292;2023-05-07T09:51:29;3.10;;;2.50;;
69126;SDS011;56688;50.234;19.292;2023-05-07T09:54:01;3.40;;;2.70;;
69126;SDS011;56688;50.234;19.292;2023-05-07T09:56:31;4.30;;;2.90;;
69126;SDS011;56688;50.234;19.292;2023-05-07T09:58:59;3.80;;;2.60;;
69126;SDS011;56688;50.234;19.292;2023-05-07T10:01:30;3.80;;;2.80;;
69126;SDS011;56688;50.234;19.292;2023-05-07T10:04:01;3.70;;;2.40;;
69126;SDS011;56688;50.234;19.292;2023-05-07T10:06:31;2.70;;;2.10;;
69126;SDS011;56688;50.234;19.292;2023-05-07T10:08:58;6.40;;;3.40;;
69126;SDS011;56688;50.234;19.292;2023-05-07T10:11:26;6.00;;;3.80;;
69126;SDS011;56688;50.234;19.292;2023-05-07T10:13:53;4.30;;;3.20;;
69126;SDS011;56688;50.234;19.292;2023-05-07T10:16:21;4.30;;;3.10;;
69126;SDS011;56688;50.234;19.292;2023-05-07T10:18:48;4.00;;;2.60;;
69126;SDS011;56688;50.234;19.292;2023-05-07T10:21:20;3.90;;;3.00;;
69126;SDS011;56688;50.234;19.292;2023-05-07T10:23:50;3.60;;;3.00;;
69126;SDS011;56688;50.234;19.292;2023-05-07T10:26:20;4.90;;;3.30;;
69126;SDS011;56688;50.234;19.292;2023-05-07T10:28:50;6.00;;;3.20;;
69126;SDS011;56688;50.234;19.292;2023-05-07T10:34:23;3.50;;;2.10;;
69126;SDS011;56688;50.234;19.292;2023-05-07T10:36:54;5.70;;;3.30;;
69126;SDS011;56688;50.234;19.292;2023-05-07T10:39:23;12.90;;;8.50;;
69126;SDS011;56688;50.234;19.292;2023-05-07T10:41:50;8.90;;;6.00;;
69126;SDS011;56688;50.234;19.292;2023-05-07T10:44:26;3.30;;;2.90;;
69126;SDS011;56688;50.234;19.292;2023-05-07T10:52:20;3.90;;;2.80;;
69126;SDS011;56688;50.234;19.292;2023-05-07T10:57:48;5.30;;;4.40;;
69126;SDS011;56688;50.234;19.292;2023-05-07T11:05:48;6.70;;;3.90;;
69126;SDS011;56688;50.234;19.292;2023-05-07T11:08:53;8.50;;;5.10;;
69126;SDS011;56688;50.234;19.292;2023-05-07T11:17:12;11.30;;;4.40;;
69126;SDS011;56688;50.234;19.292;2023-05-07T11:25:09;4.30;;;2.80;;
69126;SDS011;56688;50.234;19.292;2023-05-07T11:27:38;3.20;;;2.60;;
69126;SDS011;56688;50.234;19.292;2023-05-07T11:30:05;4.20;;;2.90;;
69126;SDS011;56688;50.234;19.292;2023-05-07T11:32:33;4.30;;;3.20;;
69126;SDS011;56688;50.234;19.292;2023-05-07T11:35:00;9.70;;;5.70;;
69126;SDS011;56688;50.234;19.292;2023-05-07T11:37:27;12.00;;;5.10;;
69126;SDS011;56688;50.234;19.292;2023-05-07T11:40:03;6.50;;;4.60;;
69126;SDS011;56688;50.234;19.292;2023-05-07T11:42:33;6.10;;;3.20;;
69126;SDS011;56688;50.234;19.292;2023-05-07T11:45:01;4.10;;;2.80;;
69126;SDS011;56688;50.234;19.292;2023-05-07T11:47:30;4.10;;;3.00;;
69126;SDS011;56688;50.234;19.292;2023-05-07T11:50:01;4.20;;;3.00;;
69126;SDS011;56688;50.234;19.292;2023-05-07T11:52:31;2.90;;;2.50;;
69126;SDS011;56688;50.234;19.292;2023-05-07T11:54:58;3.50;;;2.90;;
69126;SDS011;56688;50.234;19.292;2023-05-07T11:57:27;3.50;;;3.00;;
69126;SDS011;56688;50.234;19.292;2023-05-07T11:59:55;3.90;;;2.70;;
69126;SDS011;56688;50.234;19.292;2023-05-07T12:02:24;4.90;;;3.30;;
69126;SDS011;56688;50.234;19.292;2023-05-07T12:04:52;4.80;;;3.40;;
69126;SDS011;56688;50.234;19.292;2023-05-07T12:07:20;5.10;;;3.60;;
69126;SDS011;56688;50.234;19.292;2023-05-07T12:09:47;6.30;;;3.50;;
69126;SDS011;56688;50.234;19.292;2023-05-07T12:12:14;5.50;;;4.10;;
69126;SDS011;56688;50.234;19.292;2023-05-07T12:14:44;4.30;;;3.30;;
69126;SDS011;56688;50.234;19.292;2023-05-07T12:17:13;2.90;;;2.50;;
69126;SDS011;56688;50.234;19.292;2023-05-07T12:19:41;3.80;;;2.20;;
69126;SDS011;56688;50.234;19.292;2023-05-07T12:22:10;2.50;;;2.20;;
69126;SDS011;56688;50.234;19.292;2023-05-07T12:24:46;2.90;;;2.10;;
69126;SDS011;56688;50.234;19.292;2023-05-07T12:27:16;3.20;;;2.20;;
69126;SDS011;56688;50.234;19.292;2023-05-07T12:29:47;2.80;;;1.80;;
69126;SDS011;56688;50.234;19.292;2023-05-07T12:32:16;2.30;;;2.10;;
69126;SDS011;56688;50.234;19.292;2023-05-07T12:34:45;2.70;;;2.10;;
69126;SDS011;56688;50.234;19.292;2023-05-07T12:37:13;3.80;;;2.20;;
69126;SDS011;56688;50.234;19.292;2023-05-07T12:39:47;3.80;;;2.10;;
69126;SDS011;56688;50.234;19.292;2023-05-07T12:42:15;4.90;;;2.40;;
69126;SDS011;56688;50.234;19.292;2023-05-07T12:44:45;2.60;;;2.00;;
69126;SDS011;56688;50.234;19.292;2023-05-07T12:47:13;2.30;;;2.00;;
69126;SDS011;56688;50.234;19.292;2023-05-07T12:49:41;3.00;;;2.20;;
69126;SDS011;56688;50.234;19.292;2023-05-07T12:52:09;4.30;;;2.00;;
69126;SDS011;56688;50.234;19.292;2023-05-07T12:54:37;3.40;;;2.00;;
69126;SDS011;56688;50.234;19.292;2023-05-07T12:57:07;2.90;;;2.50;;
69126;SDS011;56688;50.234;19.292;2023-05-07T12:59:37;4.90;;;2.60;;
69126;SDS011;56688;50.234;19.292;2023-05-07T13:02:06;2.50;;;2.10;;
69126;SDS011;56688;50.234;19.292;2023-05-07T13:04:35;3.40;;;2.10;;
69126;SDS011;56688;50.234;19.292;2023-05-07T13:07:02;2.80;;;2.20;;
69126;SDS011;56688;50.234;19.292;2023-05-07T13:09:30;3.40;;;1.80;;
69126;SDS011;56688;50.234;19.292;2023-05-07T13:11:57;3.10;;;1.80;;
69126;SDS011;56688;50.234;19.292;2023-05-07T13:14:30;2.40;;;1.90;;
69126;SDS011;56688;50.234;19.292;2023-05-07T13:16:58;2.20;;;2.00;;
69126;SDS011;56688;50.234;19.292;2023-05-07T13:19:25;2.70;;;2.00;;
69126;SDS011;56688;50.234;19.292;2023-05-07T13:21:51;2.70;;;2.10;;
69126;SDS011;56688;50.234;19.292;2023-05-07T13:24:18;2.90;;;2.10;;
69126;SDS011;56688;50.234;19.292;2023-05-07T13:26:45;2.40;;;2.20;;
69126;SDS011;56688;50.234;19.292;2023-05-07T13:29:12;4.40;;;2.10;;
69126;SDS011;56688;50.234;19.292;2023-05-07T13:31:39;2.30;;;1.90;;
69126;SDS011;56688;50.234;19.292;2023-05-07T13:34:09;3.20;;;2.50;;
69126;SDS011;56688;50.234;19.292;2023-05-07T13:36:37;2.60;;;2.10;;
69126;SDS011;56688;50.234;19.292;2023-05-07T13:39:06;4.50;;;3.40;;
69126;SDS011;56688;50.234;19.292;2023-05-07T13:41:33;6.80;;;4.70;;
69126;SDS011;56688;50.234;19.292;2023-05-07T13:44:00;7.50;;;5.30;;
69126;SDS011;56688;50.234;19.292;2023-05-07T13:46:27;6.20;;;3.40;;
69126;SDS011;56688;50.234;19.292;2023-05-07T13:48:54;3.50;;;2.90;;
69126;SDS011;56688;50.234;19.292;2023-05-07T13:51:21;5.00;;;2.80;;
69126;SDS011;56688;50.234;19.292;2023-05-07T13:53:48;3.10;;;2.40;;
69126;SDS011;56688;50.234;19.292;2023-05-07T13:56:15;5.30;;;3.00;;
69126;SDS011;56688;50.234;19.292;2023-05-07T13:58:42;3.20;;;2.60;;
69126;SDS011;56688;50.234;19.292;2023-05-07T14:01:25;4.70;;;3.60;;
69126;SDS011;56688;50.234;19.292;2023-05-07T14:03:52;3.40;;;2.70;;
69126;SDS011;56688;50.234;19.292;2023-05-07T14:06:19;4.80;;;3.30;;
69126;SDS011;56688;50.234;19.292;2023-05-07T14:08:46;3.70;;;2.80;;
69126;SDS011;56688;50.234;19.292;2023-05-07T14:11:13;14.00;;;9.80;;
69126;SDS011;56688;50.234;19.292;2023-05-07T14:13:40;7.50;;;6.10;;
69126;SDS011;56688;50.234;19.292;2023-05-07T14:16:06;4.70;;;3.90;;
69126;SDS011;56688;50.234;19.292;2023-05-07T14:18:33;4.70;;;3.50;;
69126;SDS011;56688;50.234;19.292;2023-05-07T14:21:01;3.80;;;3.00;;
69126;SDS011;56688;50.234;19.292;2023-05-07T14:23:28;7.00;;;5.60;;
69126;SDS011;56688;50.234;19.292;2023-05-07T14:25:55;4.00;;;2.90;;
69126;SDS011;56688;50.234;19.292;2023-05-07T14:28:24;3.40;;;2.80;;
69126;SDS011;56688;50.234;19.292;2023-05-07T14:30:50;3.70;;;3.00;;
69126;SDS011;56688;50.234;19.292;2023-05-07T14:33:17;5.70;;;3.80;;
69126;SDS011;56688;50.234;19.292;2023-05-07T14:35:44;4.20;;;3.30;;
69126;SDS011;56688;50.234;19.292;2023-05-07T14:38:15;3.30;;;3.00;;
69126;SDS011;56688;50.234;19.292;2023-05-07T14:40:42;3.70;;;3.00;;
69126;SDS011;56688;50.234;19.292;2023-05-07T14:43:09;3.80;;;2.90;;
69126;SDS011;56688;50.234;19.292;2023-05-07T14:45:35;2.90;;;2.50;;
69126;SDS011;56688;50.234;19.292;2023-05-07T14:48:03;3.10;;;2.70;;
69126;SDS011;56688;50.234;19.292;2023-05-07T14:50:30;3.30;;;2.90;;
69126;SDS011;56688;50.234;19.292;2023-05-07T14:52:57;3.50;;;2.70;;
69126;SDS011;56688;50.234;19.292;2023-05-07T14:55:26;4.70;;;3.70;;
69126;SDS011;56688;50.234;19.292;2023-05-07T14:57:53;5.70;;;4.70;;
69126;SDS011;56688;50.234;19.292;2023-05-07T15:00:19;5.80;;;4.40;;
69126;SDS011;56688;50.234;19.292;2023-05-07T15:02:46;3.90;;;3.50;;
69126;SDS011;56688;50.234;19.292;2023-05-07T15:05:13;4.80;;;3.20;;
69126;SDS011;56688;50.234;19.292;2023-05-07T15:07:41;5.50;;;3.40;;